createdAt,value
2023-03-26T00:00:54.625Z,18.18
2023-03-26T00:01:54.672Z,18.15
2023-03-26T00:02:54.645Z,18.17
2023-03-26T00:03:54.636Z,18.23
2023-03-26T00:04:54.606Z,18.18
2023-03-26T00:05:54.861Z,18.21
2023-03-26T00:06:54.608Z,18.23
2023-03-26T00:07:54.590Z,18.18
2023-03-26T00:08:54.590Z,18.18
2023-03-26T00:09:54.586Z,18.14
2023-03-26T00:10:54.582Z,18.21
2023-03-26T00:11:54.582Z,18.15
2023-03-26T00:12:54.572Z,18.23
2023-03-26T00:13:54.570Z,18.20
2023-03-26T00:14:54.571Z,18.23
2023-03-26T00:15:54.624Z,18.17
2023-03-26T00:16:54.626Z,18.17
2023-03-26T00:17:54.567Z,18.15
2023-03-26T00:18:54.577Z,18.18
2023-03-26T00:19:54.559Z,18.18
2023-03-26T00:20:54.549Z,18.21
2023-03-26T00:21:54.540Z,18.20
2023-03-26T00:22:54.540Z,18.20
2023-03-26T00:23:54.535Z,18.15
2023-03-26T00:24:54.548Z,18.17
2023-03-26T00:25:54.817Z,18.15
2023-03-26T00:26:54.530Z,18.18
2023-03-26T00:27:54.513Z,18.17
2023-03-26T00:28:54.713Z,18.12
2023-03-26T00:29:54.509Z,18.17
2023-03-26T00:30:54.564Z,18.20
2023-03-26T00:31:54.519Z,18.21
2023-03-26T00:32:54.569Z,18.15
2023-03-26T00:33:54.513Z,18.17
2023-03-26T00:34:54.537Z,18.20
2023-03-26T00:35:54.810Z,18.18
2023-03-26T00:36:54.522Z,18.21
2023-03-26T00:37:54.488Z,18.20
2023-03-26T00:38:54.540Z,18.20
2023-03-26T00:39:54.489Z,18.20
2023-03-26T00:40:54.489Z,18.18
2023-03-26T00:41:54.894Z,18.20
2023-03-26T00:42:54.498Z,18.15
2023-03-26T00:43:54.481Z,18.15
2023-03-26T00:44:54.486Z,18.18
2023-03-26T00:45:54.787Z,18.21
2023-03-26T00:46:54.507Z,18.15
2023-03-26T00:47:54.488Z,18.21
2023-03-26T00:48:54.465Z,18.20
2023-03-26T00:49:54.446Z,18.21
2023-03-26T00:50:54.474Z,18.18
2023-03-26T00:51:54.461Z,18.18
2023-03-26T00:52:54.457Z,18.23
2023-03-26T00:53:54.436Z,18.18
2023-03-26T00:54:54.470Z,18.20
2023-03-26T00:55:54.566Z,18.18
2023-03-26T00:56:54.465Z,18.21
2023-03-26T00:57:54.450Z,18.17
2023-03-26T00:58:54.433Z,18.20
2023-03-26T00:59:54.410Z,18.17
2023-03-26T01:00:54.425Z,18.20
2023-03-26T01:01:54.451Z,18.18
2023-03-26T01:02:54.531Z,18.20
2023-03-26T01:04:06.883Z,18.23
2023-03-26T01:04:54.449Z,18.20
2023-03-26T01:05:54.606Z,18.21
2023-03-26T01:06:54.407Z,18.21
2023-03-26T01:07:54.450Z,18.17
2023-03-26T01:08:54.405Z,18.21
2023-03-26T01:09:54.380Z,18.23
2023-03-26T01:10:54.398Z,18.20
2023-03-26T01:11:54.366Z,18.14
2023-03-26T01:12:54.392Z,18.21
2023-03-26T01:13:54.362Z,18.26
2023-03-26T01:14:54.389Z,18.25
2023-03-26T01:15:54.569Z,18.23
2023-03-26T01:16:54.371Z,18.23
2023-03-26T01:17:54.400Z,18.17
2023-03-26T01:18:54.354Z,18.17
2023-03-26T01:19:54.368Z,18.27
2023-03-26T01:20:54.370Z,18.21
2023-03-26T01:21:54.361Z,18.15
2023-03-26T01:22:54.355Z,18.26
2023-03-26T01:23:54.372Z,18.18
2023-03-26T01:24:54.351Z,18.26
2023-03-26T01:25:54.467Z,18.17
2023-03-26T01:26:54.339Z,18.20
2023-03-26T01:27:54.322Z,18.20
2023-03-26T01:28:54.347Z,18.17
2023-03-26T01:29:54.326Z,18.20
2023-03-26T01:30:54.334Z,18.12
2023-03-26T01:31:54.308Z,18.20
2023-03-26T01:32:54.353Z,18.17
2023-03-26T01:33:54.309Z,18.25
2023-03-26T01:34:54.339Z,18.17
2023-03-26T01:35:54.496Z,18.23
2023-03-26T01:36:54.315Z,18.15
2023-03-26T01:37:54.281Z,18.20
2023-03-26T01:38:54.306Z,18.17
2023-03-26T01:39:54.322Z,18.21
2023-03-26T01:40:54.301Z,18.18
2023-03-26T01:41:54.305Z,18.18
2023-03-26T01:42:54.293Z,18.18
2023-03-26T01:43:54.266Z,18.18
2023-03-26T01:44:54.288Z,18.17
2023-03-26T01:45:54.532Z,18.20
2023-03-26T01:46:54.354Z,18.15
2023-03-26T01:47:54.290Z,18.21
2023-03-26T01:48:54.273Z,18.17
2023-03-26T01:49:54.245Z,18.23
2023-03-26T01:50:54.247Z,18.18
2023-03-26T01:51:54.252Z,18.17
2023-03-26T01:52:54.249Z,18.21
2023-03-26T01:53:54.239Z,18.23
2023-03-26T01:54:54.238Z,18.18
2023-03-26T01:55:54.466Z,18.14
2023-03-26T01:56:54.312Z,18.20
2023-03-26T01:57:54.220Z,18.18
2023-03-26T01:58:54.235Z,18.18
2023-03-26T01:59:54.233Z,18.17
2023-03-26T02:00:54.239Z,18.20
2023-03-26T02:01:54.315Z,18.11
2023-03-26T02:02:54.362Z,18.23
2023-03-26T02:03:54.200Z,18.20
2023-03-26T02:04:54.218Z,18.20
2023-03-26T02:05:54.394Z,18.18
2023-03-26T02:06:54.221Z,18.18
2023-03-26T02:07:54.189Z,18.15
2023-03-26T02:08:54.223Z,18.08
2023-03-26T02:09:54.172Z,18.17
2023-03-26T02:10:54.197Z,18.18
2023-03-26T02:11:54.184Z,18.17
2023-03-26T02:12:54.186Z,18.14
2023-03-26T02:13:54.183Z,18.21
2023-03-26T02:14:54.191Z,18.11
2023-03-26T02:15:54.421Z,18.25
2023-03-26T02:16:54.162Z,18.17
2023-03-26T02:17:54.358Z,18.05
2023-03-26T02:18:54.162Z,18.11
2023-03-26T02:19:54.150Z,18.14
2023-03-26T02:20:54.167Z,18.14
2023-03-26T02:21:54.144Z,18.08
2023-03-26T02:22:54.159Z,18.20
2023-03-26T02:23:54.141Z,18.21
2023-03-26T02:24:54.142Z,18.15
2023-03-26T02:25:54.287Z,18.14
2023-03-26T02:26:54.147Z,18.10
2023-03-26T02:27:54.153Z,18.12
2023-03-26T02:28:54.137Z,18.15
2023-03-26T02:29:54.136Z,18.15
2023-03-26T02:30:54.127Z,18.10
2023-03-26T02:31:54.151Z,18.20
2023-03-26T02:32:54.400Z,18.15
2023-03-26T02:33:54.096Z,18.08
2023-03-26T02:34:54.107Z,18.20
2023-03-26T02:35:54.348Z,18.11
2023-03-26T02:36:54.152Z,18.14
2023-03-26T02:37:54.102Z,18.15
2023-03-26T02:38:54.105Z,18.18
2023-03-26T02:39:54.074Z,18.07
2023-03-26T02:40:54.101Z,18.21
2023-03-26T02:41:54.077Z,18.26
2023-03-26T02:42:54.088Z,18.18
2023-03-26T02:43:54.091Z,18.08
2023-03-26T02:44:54.145Z,18.18
2023-03-26T02:45:54.340Z,18.15
2023-03-26T02:46:54.104Z,18.14
2023-03-26T02:47:54.110Z,18.15
2023-03-26T02:48:54.076Z,18.21
2023-03-26T02:49:54.036Z,18.05
2023-03-26T02:50:54.103Z,18.23
2023-03-26T02:51:54.037Z,18.11
2023-03-26T02:52:54.050Z,18.17
2023-03-26T02:53:54.045Z,18.25
2023-03-26T02:54:54.048Z,18.12
2023-03-26T02:55:54.181Z,18.08
2023-03-26T02:56:54.083Z,18.14
2023-03-26T02:57:54.027Z,18.14
2023-03-26T02:58:54.036Z,18.11
2023-03-26T02:59:54.028Z,18.08
2023-03-26T03:00:54.063Z,18.08
2023-03-26T03:01:54.022Z,18.20
2023-03-26T03:02:54.245Z,18.15
2023-03-26T03:03:54.024Z,18.12
2023-03-26T03:04:54.013Z,18.20
2023-03-26T03:05:54.151Z,18.07
2023-03-26T03:06:54.010Z,18.17
2023-03-26T03:07:53.992Z,18.18
2023-03-26T03:08:54.131Z,18.12
2023-03-26T03:09:53.977Z,18.10
2023-03-26T03:10:53.988Z,18.18
2023-03-26T03:11:53.973Z,18.10
2023-03-26T03:12:53.988Z,18.08
2023-03-26T03:13:53.970Z,18.18
2023-03-26T03:14:53.965Z,18.10
2023-03-26T03:15:54.239Z,18.02
2023-03-26T03:16:54.146Z,18.11
2023-03-26T03:17:53.982Z,18.08
2023-03-26T03:18:53.969Z,18.10
2023-03-26T03:19:53.951Z,18.03
2023-03-26T03:20:53.956Z,18.08
2023-03-26T03:21:53.940Z,18.08
2023-03-26T03:22:53.950Z,18.05
2023-03-26T03:23:53.937Z,18.11
2023-03-26T03:24:53.951Z,18.05
2023-03-26T03:25:54.139Z,18.12
2023-03-26T03:26:53.926Z,17.97
2023-03-26T03:27:53.944Z,18.12
2023-03-26T03:28:53.924Z,18.08
2023-03-26T03:29:53.909Z,18.15
2023-03-26T03:30:53.985Z,18.10
2023-03-26T03:31:53.916Z,17.97
2023-03-26T03:32:53.971Z,18.14
2023-03-26T03:33:53.900Z,18.05
2023-03-26T03:34:53.918Z,18.02
2023-03-26T03:35:54.111Z,18.08
2023-03-26T03:36:53.909Z,18.02
2023-03-26T03:37:53.900Z,18.07
2023-03-26T03:38:53.900Z,18.02
2023-03-26T03:39:53.871Z,18.02
2023-03-26T03:40:53.893Z,18.05
2023-03-26T03:41:53.877Z,18.05
2023-03-26T03:42:53.879Z,18.12
2023-03-26T03:43:53.869Z,18.05
2023-03-26T03:44:53.870Z,18.03
2023-03-26T03:45:54.065Z,18.05
2023-03-26T03:46:53.889Z,18.05
2023-03-26T03:47:53.955Z,18.05
2023-03-26T03:48:53.848Z,18.00
2023-03-26T03:49:53.876Z,18.08
2023-03-26T03:50:53.837Z,18.03
2023-03-26T03:51:53.858Z,18.05
2023-03-26T03:52:53.845Z,18.07
2023-03-26T03:53:53.839Z,18.05
2023-03-26T03:54:53.840Z,18.10
2023-03-26T03:55:54.156Z,18.07
2023-03-26T03:56:53.824Z,18.03
2023-03-26T03:57:53.828Z,18.03
2023-03-26T03:58:53.816Z,18.07
2023-03-26T03:59:53.834Z,18.05
2023-03-26T04:00:53.801Z,17.99
2023-03-26T04:01:53.867Z,18.03
2023-03-26T04:02:53.903Z,17.99
2023-03-26T04:03:54.001Z,18.05
2023-03-26T04:04:53.805Z,18.05
2023-03-26T04:05:53.945Z,18.08
2023-03-26T04:06:53.789Z,18.02
2023-03-26T04:07:53.792Z,18.03
2023-03-26T04:08:53.774Z,18.03
2023-03-26T04:09:53.784Z,18.05
2023-03-26T04:10:53.770Z,18.05
2023-03-26T04:11:53.776Z,18.05
2023-03-26T04:12:53.774Z,18.05
2023-03-26T04:13:53.784Z,17.99
2023-03-26T04:14:53.767Z,18.00
2023-03-26T04:15:54.147Z,18.03
2023-03-26T04:16:53.756Z,18.03
2023-03-26T04:17:53.786Z,18.05
2023-03-26T04:18:53.743Z,18.02
2023-03-26T04:19:53.775Z,18.07
2023-03-26T04:20:53.731Z,18.07
2023-03-26T04:21:53.748Z,18.05
2023-03-26T04:22:53.737Z,18.08
2023-03-26T04:23:53.732Z,17.99
2023-03-26T04:24:53.734Z,17.99
2023-03-26T04:25:54.198Z,18.03
2023-03-26T04:26:53.731Z,18.02
2023-03-26T04:27:53.723Z,17.95
2023-03-26T04:28:53.698Z,18.03
2023-03-26T04:29:53.720Z,18.02
2023-03-26T04:30:53.701Z,18.08
2023-03-26T04:31:53.768Z,17.93
2023-03-26T04:32:53.708Z,17.93
2023-03-26T04:33:53.719Z,18.11
2023-03-26T04:34:53.700Z,18.10
2023-03-26T04:35:53.964Z,18.05
2023-03-26T04:36:53.686Z,18.07
2023-03-26T04:37:53.702Z,18.03
2023-03-26T04:38:53.671Z,17.96
2023-03-26T04:39:53.677Z,17.96
2023-03-26T04:40:53.658Z,18.00
2023-03-26T04:41:53.693Z,17.99
2023-03-26T04:42:53.668Z,18.00
2023-03-26T04:43:53.679Z,17.99
2023-03-26T04:44:53.647Z,17.96
2023-03-26T04:45:54.046Z,17.90
2023-03-26T04:46:53.669Z,18.03
2023-03-26T04:47:53.702Z,18.00
2023-03-26T04:48:53.635Z,17.99
2023-03-26T04:49:53.658Z,17.95
2023-03-26T04:50:53.633Z,17.96
2023-03-26T04:51:53.660Z,17.96
2023-03-26T04:52:53.621Z,17.93
2023-03-26T04:53:53.630Z,17.97
2023-03-26T04:54:53.604Z,17.99
2023-03-26T04:55:53.804Z,18.05
2023-03-26T04:56:53.629Z,17.93
2023-03-26T04:57:53.631Z,17.97
2023-03-26T04:58:53.599Z,17.95
2023-03-26T04:59:53.611Z,17.99
2023-03-26T05:00:53.608Z,17.95
2023-03-26T05:01:53.613Z,17.95
2023-03-26T05:02:53.589Z,17.95
2023-03-26T05:03:53.619Z,17.97
2023-03-26T05:04:53.587Z,18.05
2023-03-26T05:05:53.794Z,17.99
2023-03-26T05:06:53.575Z,17.99
2023-03-26T05:07:53.614Z,17.96
2023-03-26T05:08:53.563Z,17.96
2023-03-26T05:09:53.578Z,18.03
2023-03-26T05:10:53.998Z,17.96
2023-03-26T05:11:53.586Z,18.02
2023-03-26T05:12:53.566Z,18.02
2023-03-26T05:13:53.556Z,17.96
2023-03-26T05:14:53.545Z,17.96
2023-03-26T05:15:53.568Z,17.99
2023-03-26T05:16:53.540Z,18.03
2023-03-26T05:17:53.611Z,17.93
2023-03-26T05:18:53.520Z,17.99
2023-03-26T05:19:53.549Z,18.02
2023-03-26T05:20:53.701Z,17.93
2023-03-26T05:21:53.558Z,18.03
2023-03-26T05:22:53.523Z,17.97
2023-03-26T05:23:53.540Z,17.99
2023-03-26T05:24:53.509Z,17.90
2023-03-26T05:25:53.522Z,17.95
2023-03-26T05:26:53.500Z,17.96
2023-03-26T05:27:53.502Z,18.03
2023-03-26T05:28:53.494Z,18.00
2023-03-26T05:29:53.514Z,18.00
2023-03-26T05:30:53.764Z,17.93
2023-03-26T05:31:53.508Z,17.97
2023-03-26T05:32:53.506Z,17.99
2023-03-26T05:33:53.556Z,18.02
2023-03-26T05:34:53.465Z,18.00
2023-03-26T05:35:53.594Z,17.96
2023-03-26T05:36:53.477Z,17.96
2023-03-26T05:37:53.476Z,17.95
2023-03-26T05:38:53.454Z,17.97
2023-03-26T05:39:53.609Z,17.95
2023-03-26T05:40:53.740Z,17.87
2023-03-26T05:41:53.457Z,17.97
2023-03-26T05:42:53.467Z,17.95
2023-03-26T05:43:53.479Z,17.97
2023-03-26T05:44:53.444Z,18.00
2023-03-26T05:45:53.506Z,17.96
2023-03-26T05:46:53.459Z,18.03
2023-03-26T05:47:53.489Z,18.03
2023-03-26T05:48:53.428Z,18.00
2023-03-26T05:49:53.444Z,17.95
2023-03-26T05:50:53.579Z,17.97
2023-03-26T05:51:55.440Z,17.96
2023-03-26T05:52:53.435Z,17.89
2023-03-26T05:53:53.432Z,17.90
2023-03-26T05:54:53.410Z,18.03
2023-03-26T05:55:53.491Z,18.05
2023-03-26T05:56:53.414Z,18.07
2023-03-26T05:57:53.397Z,17.95
2023-03-26T05:58:53.383Z,17.95
2023-03-26T05:59:53.406Z,17.96
2023-03-26T06:00:53.579Z,17.87
2023-03-26T06:01:53.402Z,18.02
2023-03-26T06:02:53.452Z,17.96
2023-03-26T06:03:53.550Z,17.93
2023-03-26T06:04:53.414Z,18.03
2023-03-26T06:05:53.377Z,17.92
2023-03-26T06:06:53.357Z,18.05
2023-03-26T06:07:53.374Z,17.97
2023-03-26T06:09:01.080Z,17.90
2023-03-26T06:09:53.357Z,17.99
2023-03-26T06:10:53.726Z,17.90
2023-03-26T06:11:53.370Z,17.93
2023-03-26T06:12:53.351Z,17.92
2023-03-26T06:13:53.349Z,17.90
2023-03-26T06:14:53.323Z,17.89
2023-03-26T06:15:53.350Z,17.97
2023-03-26T06:16:53.327Z,17.92
2023-03-26T06:17:53.389Z,17.90
2023-03-26T06:18:56.353Z,17.93
2023-03-26T06:19:53.326Z,17.93
2023-03-26T06:20:53.421Z,17.89
2023-03-26T06:21:53.321Z,17.90
2023-03-26T06:22:53.300Z,17.95
2023-03-26T06:23:53.334Z,17.93
2023-03-26T06:24:53.300Z,17.93
2023-03-26T06:25:53.300Z,17.93
2023-03-26T06:26:53.302Z,17.92
2023-03-26T06:27:53.325Z,17.93
2023-03-26T06:28:53.274Z,17.89
2023-03-26T06:29:53.295Z,17.90
2023-03-26T06:30:53.579Z,17.92
2023-03-26T06:31:53.287Z,17.87
2023-03-26T06:32:53.306Z,17.87
2023-03-26T06:33:53.294Z,17.90
2023-03-26T06:34:53.276Z,17.93
2023-03-26T06:35:53.315Z,17.84
2023-03-26T06:36:53.286Z,17.86
2023-03-26T06:37:53.270Z,17.89
2023-03-26T06:38:53.251Z,17.89
2023-03-26T06:39:53.260Z,17.93
2023-03-26T06:40:53.414Z,17.90
2023-03-26T06:41:53.265Z,17.90
2023-03-26T06:43:07.769Z,17.89
2023-03-26T06:43:53.268Z,17.86
2023-03-26T06:44:53.248Z,17.84
2023-03-26T06:45:53.248Z,17.81
2023-03-26T06:46:53.280Z,17.93
2023-03-26T06:47:53.287Z,17.89
2023-03-26T06:48:53.204Z,17.89
2023-03-26T06:49:53.250Z,17.89
2023-03-26T06:50:53.359Z,17.89
2023-03-26T06:51:53.240Z,17.87
2023-03-26T06:52:53.201Z,17.89
2023-03-26T06:53:53.216Z,17.90
2023-03-26T06:54:53.195Z,17.90
2023-03-26T06:55:53.210Z,17.86
2023-03-26T06:56:53.293Z,17.87
2023-03-26T06:57:53.225Z,17.84
2023-03-26T06:58:53.167Z,17.86
2023-03-26T06:59:53.210Z,17.84
2023-03-26T07:00:53.587Z,17.87
2023-03-26T07:01:53.191Z,17.82
2023-03-26T07:02:53.301Z,17.82
2023-03-26T07:03:53.201Z,17.82
2023-03-26T07:04:53.163Z,17.86
2023-03-26T07:05:53.169Z,17.81
2023-03-26T07:06:53.153Z,17.89
2023-03-26T07:07:53.152Z,17.89
2023-03-26T07:08:53.130Z,17.87
2023-03-26T07:09:53.158Z,17.75
2023-03-26T07:10:53.478Z,17.79
2023-03-26T07:11:53.153Z,17.84
2023-03-26T07:12:53.130Z,17.79
2023-03-26T07:13:53.147Z,17.84
2023-03-26T07:14:53.166Z,17.81
2023-03-26T07:15:53.207Z,17.86
2023-03-26T07:16:53.175Z,17.78
2023-03-26T07:17:53.246Z,17.84
2023-03-26T07:18:53.112Z,17.77
2023-03-26T07:19:53.122Z,17.84
2023-03-26T07:20:53.645Z,17.72
2023-03-26T07:21:53.122Z,17.79
2023-03-26T07:22:53.097Z,17.87
2023-03-26T07:23:54.839Z,17.75
2023-03-26T07:24:53.099Z,17.79
2023-03-26T07:25:53.108Z,17.79
2023-03-26T07:26:53.085Z,17.75
2023-03-26T07:27:53.096Z,17.78
2023-03-26T07:29:04.570Z,17.81
2023-03-26T07:29:53.090Z,17.79
2023-03-26T07:30:53.418Z,17.75
2023-03-26T07:31:53.184Z,17.78
2023-03-26T07:32:53.093Z,17.75
2023-03-26T07:33:53.058Z,17.77
2023-03-26T07:34:53.076Z,17.77
2023-03-26T07:35:53.102Z,17.75
2023-03-26T07:36:53.050Z,17.82
2023-03-26T07:37:53.066Z,17.77
2023-03-26T07:38:53.046Z,17.75
2023-03-26T07:39:53.047Z,17.72
2023-03-26T07:40:53.210Z,17.77
2023-03-26T07:41:53.042Z,17.72
2023-03-26T07:42:53.035Z,17.78
2023-03-26T07:43:53.040Z,17.74
2023-03-26T07:44:53.002Z,17.72
2023-03-26T07:45:53.051Z,17.75
2023-03-26T07:46:53.031Z,17.74
2023-03-26T07:47:53.068Z,17.75
2023-03-26T07:48:53.004Z,17.74
2023-03-26T07:49:53.022Z,17.75
2023-03-26T07:50:53.356Z,17.77
2023-03-26T07:51:52.999Z,17.74
2023-03-26T07:52:52.977Z,17.78
2023-03-26T07:53:53.000Z,17.75
2023-03-26T07:54:52.977Z,17.74
2023-03-26T07:55:52.998Z,17.74
2023-03-26T07:56:56.567Z,17.77
2023-03-26T07:57:52.994Z,17.77
2023-03-26T07:58:52.990Z,17.77
2023-03-26T07:59:52.982Z,17.82
2023-03-26T08:00:53.097Z,17.74
2023-03-26T08:01:52.976Z,17.78
2023-03-26T08:02:52.987Z,17.75
2023-03-26T08:03:53.097Z,17.75
2023-03-26T08:04:53.043Z,17.77
2023-03-26T08:05:52.933Z,17.75
2023-03-26T08:06:52.942Z,17.77
2023-03-26T08:07:52.936Z,17.77
2023-03-26T08:08:52.947Z,17.72
2023-03-26T08:09:52.932Z,17.77
2023-03-26T08:10:53.077Z,17.77
2023-03-26T08:11:53.171Z,17.77
2023-03-26T08:12:52.925Z,17.78
2023-03-26T08:13:53.016Z,17.79
2023-03-26T08:14:52.942Z,17.84
2023-03-26T08:15:52.978Z,17.90
2023-03-26T08:16:52.910Z,17.90
2023-03-26T08:17:52.933Z,17.81
2023-03-26T08:18:52.910Z,17.92
2023-03-26T08:19:52.893Z,17.92
2023-03-26T08:20:53.177Z,17.92
2023-03-26T08:21:52.872Z,17.90
2023-03-26T08:22:52.892Z,17.84
2023-03-26T08:23:52.881Z,17.99
2023-03-26T08:24:52.918Z,18.02
2023-03-26T08:25:52.864Z,17.96
2023-03-26T08:26:52.888Z,18.10
2023-03-26T08:27:52.859Z,18.02
2023-03-26T08:28:52.876Z,18.05
2023-03-26T08:29:52.849Z,18.05
2023-03-26T08:30:53.337Z,18.08
2023-03-26T08:31:52.836Z,18.20
2023-03-26T08:32:52.862Z,18.26
2023-03-26T08:33:52.838Z,18.14
2023-03-26T08:34:52.854Z,18.23
2023-03-26T08:35:52.890Z,18.21
2023-03-26T08:36:52.844Z,18.18
2023-03-26T08:37:52.822Z,18.23
2023-03-26T08:38:52.853Z,18.27
2023-03-26T08:39:52.839Z,18.29
2023-03-26T08:40:53.015Z,18.37
2023-03-26T08:41:52.794Z,18.37
2023-03-26T08:42:52.830Z,18.47
2023-03-26T08:43:55.424Z,18.51
2023-03-26T08:44:52.821Z,18.55
2023-03-26T08:45:52.796Z,18.57
2023-03-26T08:46:52.878Z,18.67
2023-03-26T08:47:52.826Z,18.60
2023-03-26T08:48:52.794Z,18.69
2023-03-26T08:49:52.782Z,18.72
2023-03-26T08:50:52.969Z,18.82
2023-03-26T08:51:52.790Z,18.81
2023-03-26T08:52:52.778Z,18.87
2023-03-26T08:53:52.767Z,18.88
2023-03-26T08:54:52.782Z,18.90
2023-03-26T08:55:52.773Z,18.90
2023-03-26T08:56:52.816Z,18.98
2023-03-26T08:57:52.752Z,19.04
2023-03-26T08:58:52.770Z,19.02
2023-03-26T08:59:52.758Z,19.10
2023-03-26T09:00:53.123Z,19.07
2023-03-26T09:01:52.852Z,19.11
2023-03-26T09:02:52.761Z,19.19
2023-03-26T09:03:52.838Z,19.19
2023-03-26T09:04:52.757Z,19.26
2023-03-26T09:05:52.748Z,19.28
2023-03-26T09:06:52.752Z,19.25
2023-03-26T09:07:52.766Z,19.28
2023-03-26T09:08:54.489Z,19.31
2023-03-26T09:09:52.776Z,19.40
2023-03-26T09:10:52.941Z,19.28
2023-03-26T09:11:52.722Z,19.39
2023-03-26T09:12:52.738Z,19.37
2023-03-26T09:13:52.736Z,19.44
2023-03-26T09:14:52.716Z,19.47
2023-03-26T09:15:52.790Z,19.44
2023-03-26T09:16:52.712Z,19.36
2023-03-26T09:17:52.720Z,19.18
2023-03-26T09:18:52.710Z,18.91
2023-03-26T09:19:52.712Z,18.57
2023-03-26T09:20:52.931Z,18.21
2023-03-26T09:21:52.696Z,17.95
2023-03-26T09:22:52.708Z,17.64
2023-03-26T09:23:52.786Z,17.30
2023-03-26T09:24:52.706Z,17.08
2023-03-26T09:25:52.686Z,16.94
2023-03-26T09:26:52.693Z,16.70
2023-03-26T09:27:52.679Z,16.45
2023-03-26T09:28:52.690Z,16.28
2023-03-26T09:29:52.661Z,16.09
2023-03-26T09:30:52.906Z,15.93
2023-03-26T09:31:52.696Z,15.86
2023-03-26T09:32:52.834Z,15.65
2023-03-26T09:33:52.662Z,15.43
2023-03-26T09:34:52.652Z,15.38
2023-03-26T09:35:52.901Z,15.34
2023-03-26T09:36:52.639Z,15.21
2023-03-26T09:37:57.969Z,15.14
2023-03-26T09:38:52.626Z,15.13
2023-03-26T09:39:52.697Z,15.06
2023-03-26T09:40:53.112Z,14.99
2023-03-26T09:41:52.633Z,14.89
2023-03-26T09:42:52.592Z,14.73
2023-03-26T09:43:52.586Z,14.65
2023-03-26T09:44:52.594Z,14.64
2023-03-26T09:45:52.593Z,14.62
2023-03-26T09:46:52.605Z,14.46
2023-03-26T09:47:52.611Z,14.54
2023-03-26T09:48:52.569Z,14.55
2023-03-26T09:49:52.540Z,14.40
2023-03-26T09:50:52.724Z,14.24
2023-03-26T09:51:52.525Z,14.20
2023-03-26T09:52:52.560Z,14.21
2023-03-26T09:53:52.536Z,14.14
2023-03-26T09:54:52.525Z,14.21
2023-03-26T09:55:52.695Z,14.12
2023-03-26T09:56:52.526Z,14.12
2023-03-26T09:57:52.531Z,14.09
2023-03-26T09:58:52.496Z,14.06
2023-03-26T09:59:52.481Z,14.02
2023-03-26T10:00:52.621Z,14.04
2023-03-26T10:01:52.457Z,13.96
2023-03-26T10:02:52.476Z,14.03
2023-03-26T10:03:52.429Z,13.97
2023-03-26T10:04:52.452Z,13.87
2023-03-26T10:05:52.429Z,13.87
2023-03-26T10:06:52.411Z,13.87
2023-03-26T10:07:52.399Z,13.75
2023-03-26T10:08:52.413Z,13.81
2023-03-26T10:09:52.415Z,13.70
2023-03-26T10:10:52.458Z,13.64
2023-03-26T10:11:52.422Z,13.64
2023-03-26T10:12:55.972Z,13.64
2023-03-26T10:13:52.350Z,13.69
2023-03-26T10:14:52.342Z,13.70
2023-03-26T10:15:52.333Z,13.64
2023-03-26T10:16:52.364Z,13.55
2023-03-26T10:17:52.340Z,13.63
2023-03-26T10:18:52.302Z,13.63
2023-03-26T10:19:52.324Z,13.70
2023-03-26T10:20:52.358Z,13.85
2023-03-26T10:21:52.301Z,13.91
2023-03-26T10:22:52.285Z,13.97
2023-03-26T10:23:52.271Z,14.02
2023-03-26T10:24:52.265Z,14.14
2023-03-26T10:25:52.238Z,14.24
2023-03-26T10:27:09.235Z,14.32
2023-03-26T10:27:52.294Z,14.35
2023-03-26T10:28:52.252Z,14.46
2023-03-26T10:29:52.249Z,14.46
2023-03-26T10:30:52.345Z,14.51
2023-03-26T10:31:52.219Z,14.58
2023-03-26T10:32:52.264Z,14.60
2023-03-26T10:33:52.203Z,14.64
2023-03-26T10:34:52.211Z,14.77
2023-03-26T10:35:52.200Z,14.70
2023-03-26T10:36:52.177Z,14.75
2023-03-26T10:37:52.163Z,14.78
2023-03-26T10:38:52.177Z,14.88
2023-03-26T10:39:52.131Z,14.94
2023-03-26T10:40:52.203Z,14.89
2023-03-26T10:41:52.133Z,14.88
2023-03-26T10:42:52.139Z,14.95
2023-03-26T10:44:05.136Z,14.91
2023-03-26T10:44:52.115Z,14.91
2023-03-26T10:45:52.173Z,14.96
2023-03-26T10:46:52.091Z,15.06
2023-03-26T10:47:52.113Z,15.01
2023-03-26T10:48:52.076Z,14.95
2023-03-26T10:49:52.076Z,15.02
2023-03-26T10:50:52.086Z,14.96
2023-03-26T10:51:52.058Z,15.02
2023-03-26T10:52:52.043Z,15.01
2023-03-26T10:53:52.049Z,14.95
2023-03-26T10:54:52.041Z,15.07
2023-03-26T10:55:52.016Z,15.01
2023-03-26T10:56:52.099Z,15.01
2023-03-26T10:57:52.009Z,14.96
2023-03-26T10:58:52.014Z,15.02
2023-03-26T10:59:52.037Z,14.98
2023-03-26T11:00:52.128Z,14.98
2023-03-26T11:01:52.127Z,14.95
2023-03-26T11:02:52.028Z,15.07
2023-03-26T11:03:52.020Z,15.07
2023-03-26T11:04:51.968Z,15.03
2023-03-26T11:05:52.012Z,15.16
2023-03-26T11:06:51.953Z,15.10
2023-03-26T11:07:51.961Z,15.28
2023-03-26T11:08:51.936Z,15.21
2023-03-26T11:09:51.929Z,15.35
2023-03-26T11:10:51.977Z,15.32
2023-03-26T11:11:51.918Z,15.39
2023-03-26T11:12:51.919Z,15.44
2023-03-26T11:13:51.903Z,15.51
2023-03-26T11:14:52.007Z,15.54
2023-03-26T11:15:52.024Z,15.64
2023-03-26T11:16:51.909Z,15.64
2023-03-26T11:17:51.919Z,15.74
2023-03-26T11:18:51.877Z,15.75
2023-03-26T11:19:53.011Z,15.75
2023-03-26T11:20:51.863Z,15.86
2023-03-26T11:21:51.851Z,15.84
2023-03-26T11:22:51.866Z,15.94
2023-03-26T11:24:05.310Z,15.97
2023-03-26T11:24:51.836Z,15.93
2023-03-26T11:25:51.836Z,16.01
2023-03-26T11:26:51.825Z,16.07
2023-03-26T11:27:51.839Z,16.09
2023-03-26T11:29:51.831Z,16.15
2023-03-26T11:30:51.829Z,16.21
2023-03-26T11:31:51.839Z,16.23
2023-03-26T11:32:51.886Z,16.28
2023-03-26T11:33:52.737Z,16.34
2023-03-26T11:34:36.679Z,16.12
2023-03-26T11:34:51.810Z,16.41
2023-03-26T11:35:51.829Z,16.31
2023-03-26T11:36:51.817Z,16.33
2023-03-26T11:37:51.778Z,16.49
2023-03-26T11:38:51.773Z,16.48
2023-03-26T11:39:52.435Z,16.45
2023-03-26T11:40:51.824Z,16.52
2023-03-26T11:41:51.752Z,16.48
2023-03-26T11:42:51.770Z,16.56
2023-03-26T11:43:51.741Z,16.60
2023-03-26T11:44:51.888Z,16.60
2023-03-26T11:45:51.813Z,16.58
2023-03-26T11:46:51.853Z,16.60
2023-03-26T11:47:51.906Z,16.66
2023-03-26T11:48:51.739Z,16.70
2023-03-26T11:49:51.731Z,16.73
2023-03-26T11:50:51.760Z,16.73
2023-03-26T11:51:51.765Z,16.75
2023-03-26T11:52:51.814Z,16.79
2023-03-26T11:53:51.713Z,16.85
2023-03-26T11:54:51.708Z,16.75
2023-03-26T11:55:51.691Z,16.85
2023-03-26T11:57:05.293Z,16.83
2023-03-26T11:57:51.691Z,16.93
2023-03-26T11:58:51.688Z,16.96
2023-03-26T11:59:57.219Z,16.94
2023-03-26T12:00:51.681Z,16.93
2023-03-26T12:01:51.677Z,17.00
2023-03-26T12:02:51.691Z,16.96
2023-03-26T12:03:51.693Z,17.03
2023-03-26T12:04:51.716Z,17.07
2023-03-26T12:05:51.652Z,17.06
2023-03-26T12:06:51.681Z,17.06
2023-03-26T12:07:51.664Z,17.06
2023-03-26T12:08:51.648Z,17.07
2023-03-26T12:09:51.672Z,17.14
2023-03-26T12:10:51.629Z,17.07
2023-03-26T12:11:51.628Z,17.08
2023-03-26T12:12:51.627Z,17.11
2023-03-26T12:13:51.603Z,17.08
2023-03-26T12:14:51.604Z,17.16
2023-03-26T12:15:51.617Z,17.21
2023-03-26T12:16:52.843Z,17.19
2023-03-26T12:17:51.628Z,17.07
2023-03-26T12:18:51.603Z,17.16
2023-03-26T12:19:51.610Z,17.15
2023-03-26T12:20:51.580Z,17.12
2023-03-26T12:21:51.599Z,17.16
2023-03-26T12:22:51.598Z,17.19
2023-03-26T12:23:51.592Z,17.15
2023-03-26T12:24:51.564Z,17.22
2023-03-26T12:25:51.575Z,17.16
2023-03-26T12:26:51.556Z,17.16
2023-03-26T12:27:51.558Z,17.18
2023-03-26T12:28:51.552Z,17.33
2023-03-26T12:29:51.548Z,17.33
2023-03-26T12:30:51.547Z,17.28
2023-03-26T12:31:51.601Z,17.28
2023-03-26T12:32:53.042Z,17.36
2023-03-26T12:33:51.538Z,17.28
2023-03-26T12:34:51.546Z,17.26
2023-03-26T12:35:51.549Z,17.34
2023-03-26T12:36:51.531Z,17.30
2023-03-26T12:37:51.530Z,17.33
2023-03-26T12:39:16.710Z,17.33
2023-03-26T12:40:09.350Z,17.31
2023-03-26T12:40:51.526Z,17.28
2023-03-26T12:44:42.674Z,17.34
2023-03-26T12:44:53.576Z,17.33
2023-03-26T12:44:56.211Z,17.41
2023-03-26T12:44:58.891Z,17.43
2023-03-26T12:46:58.912Z,17.43
2023-03-26T12:47:56.337Z,17.48
2023-03-26T12:48:01.000Z,17.41
2023-03-26T12:48:51.620Z,17.43
2023-03-26T12:49:51.485Z,17.51
2023-03-26T12:50:51.489Z,17.46
2023-03-26T12:51:51.489Z,17.48
2023-03-26T12:52:51.467Z,17.43